Time;durP1;ratioP1;P1;durP2;ratioP2;P2;SDS_P1;SDS_P2;PMS_P1;PMS_P2;Temp;Humidity;BMP_temperature;BMP_pressure;BME280_temperature;BME280_humidity;BME280_pressure;Samples;Min_cycle;Max_cycle;Signal;HPM_P1;HPM_P2
2021/06/09 00:02:22;;;;;;;5.47;3.55;;;;;;;37.35;46.25;161031.25;1721709;82;21360;-82
2021/06/09 00:04:55;;;;;;;5.45;3.50;;;;;;;37.20;46.45;160991.06;1681574;85;21222;-82
2021/06/09 00:07:27;;;;;;;4.42;3.72;;;;;;;37.24;46.42;161000.42;1718212;83;21349;-83
2021/06/09 00:09:59;;;;;;;4.47;3.35;;;;;;;37.27;46.30;161008.41;1744205;82;21355;-82
2021/06/09 00:12:33;;;;;;;3.83;3.42;;;;;;;37.19;46.39;160987.00;1725998;83;21199;-81
2021/06/09 00:15:08;;;;;;;4.90;3.52;;;;;;;37.15;46.44;160976.33;1717769;83;21256;-82
2021/06/09 00:17:41;;;;;;;5.67;3.33;;;;;;;37.13;46.42;160970.97;1722039;83;21677;-82
2021/06/09 00:20:18;;;;;;;7.50;3.50;;;;;;;37.07;46.48;160956.25;1729765;82;21352;-83
2021/06/09 00:22:50;;;;;;;4.85;3.85;;;;;;;37.13;46.37;160972.28;1729232;83;21170;-80
2021/06/09 00:25:23;;;;;;;4.80;3.67;;;;;;;37.31;45.91;161020.52;1729536;83;21363;-83
2021/06/09 00:27:57;;;;;;;4.55;3.55;;;;;;;37.35;45.82;161029.94;1732048;82;21347;-82
2021/06/09 00:30:32;;;;;;;4.87;3.80;;;;;;;37.39;45.65;161040.59;1734002;82;21318;-82
2021/06/09 00:33:04;;;;;;;4.20;3.70;;;;;;;37.32;45.73;161021.83;1736298;82;21384;-81
2021/06/09 00:35:36;;;;;;;5.75;3.40;;;;;;;37.29;45.76;161015.14;1736374;82;21364;-83
2021/06/09 00:38:09;;;;;;;4.40;3.83;;;;;;;37.32;45.65;161023.19;1735509;82;21313;-82
2021/06/09 00:40:41;;;;;;;5.28;4.12;;;;;;;37.33;45.58;161025.83;1744414;82;21224;-81
2021/06/09 00:43:16;;;;;;;4.55;3.62;;;;;;;37.28;45.64;161012.47;1727432;83;21428;-81
2021/06/09 00:46:09;;;;;;;5.00;4.03;;;;;;;37.26;45.69;161005.78;1744425;82;21225;-82
2021/06/09 00:48:43;;;;;;;5.15;4.05;;;;;;;37.23;45.66;160999.06;1719305;83;21202;-82
2021/06/09 00:51:18;;;;;;;7.08;3.50;;;;;;;37.20;45.74;160989.69;1717946;83;21780;-82
2021/06/09 00:53:53;;;;;;;4.33;3.58;;;;;;;37.19;45.70;160987.00;1721834;83;21255;-82
2021/06/09 00:56:25;;;;;;;6.55;3.90;;;;;;;37.22;45.63;160996.38;1726563;83;21694;-81
2021/06/09 00:58:59;;;;;;;5.22;4.03;;;;;;;37.22;45.64;160995.06;1744152;82;21328;-82
2021/06/09 01:01:32;;;;;;;4.55;3.70;;;;;;;37.21;45.59;160992.37;1718388;82;21195;-82
2021/06/09 01:04:05;;;;;;;6.03;3.92;;;;;;;37.24;45.54;161000.42;1721061;83;21626;-82
2021/06/09 01:06:37;;;;;;;5.12;3.80;;;;;;;37.22;45.54;160995.06;1739977;82;21167;-81
2021/06/09 01:09:10;;;;;;;5.78;4.20;;;;;;;37.21;45.52;160993.69;1740140;82;21313;-82
2021/06/09 01:11:42;;;;;;;5.17;3.67;;;;;;;37.28;45.40;161012.47;1740234;82;21190;-81
2021/06/09 01:14:15;;;;;;;5.25;3.77;;;;;;;37.23;45.42;160999.06;1740044;82;21206;-81
2021/06/09 01:16:50;;;;;;;5.97;4.05;;;;;;;37.23;45.38;160997.73;1740089;82;21262;-82
2021/06/09 01:20:08;;;;;;;5.55;4.40;;;;;;;37.14;45.50;160973.66;1740261;82;21836;-82
2021/06/09 01:22:41;;;;;;;5.17;3.80;;;;;;;37.18;45.42;160984.33;1739215;82;21281;-82
2021/06/09 01:25:14;;;;;;;4.22;3.83;;;;;;;37.17;45.33;160983.00;1710276;84;21835;-82
2021/06/09 01:27:47;;;;;;;4.00;3.60;;;;;;;36.94;45.53;160918.75;1717136;83;21326;-82
2021/06/09 01:30:21;;;;;;;4.45;3.60;;;;;;;37.03;45.52;160945.52;1713705;82;21325;-82
2021/06/09 01:32:53;;;;;;;5.35;3.33;;;;;;;36.99;45.54;160933.47;1682936;82;21352;-81
2021/06/09 01:35:25;;;;;;;4.47;3.45;;;;;;;36.97;45.51;160928.11;1721085;83;21384;-82
2021/06/09 01:37:58;;;;;;;5.00;3.70;;;;;;;36.99;45.44;160932.09;1723003;83;21168;-82
2021/06/09 01:40:30;;;;;;;4.42;3.25;;;;;;;37.02;45.32;160940.16;1739631;82;21447;-81
2021/06/09 01:43:03;;;;;;;4.22;3.83;;;;;;;36.97;45.31;160926.80;1718739;83;21357;-82
2021/06/09 01:45:37;;;;;;;5.33;3.42;;;;;;;37.14;44.95;160973.66;1720939;83;21365;-82
2021/06/09 01:48:10;;;;;;;4.15;3.75;;;;;;;37.05;44.94;160949.50;1739539;82;21333;-81
2021/06/09 01:50:43;;;;;;;5.33;4.17;;;;;;;37.05;44.89;160950.87;1721182;83;21730;-82
2021/06/09 01:53:15;;;;;;;5.60;3.62;;;;;;;36.81;45.30;160883.89;1726384;82;21285;-81
2021/06/09 01:55:48;;;;;;;3.58;3.20;;;;;;;36.77;45.37;160874.52;1720698;83;21188;-82
2021/06/09 01:58:20;;;;;;;5.17;3.30;;;;;;;36.74;45.48;160865.16;1695665;84;21213;-82
2021/06/09 02:00:53;;;;;;;4.40;3.10;;;;;;;36.69;45.55;160851.75;1712991;83;21369;-82
2021/06/09 02:03:25;;;;;;;7.25;4.40;;;;;;;36.75;45.47;160867.84;1692214;83;21344;-82
2021/06/09 02:05:58;;;;;;;4.15;3.50;;;;;;;36.76;45.42;160871.84;1736571;82;21186;-82
2021/06/09 02:08:31;;;;;;;5.35;3.42;;;;;;;36.83;45.29;160890.56;1716463;82;21728;-81
2021/06/09 02:11:03;;;;;;;6.03;3.37;;;;;;;36.81;45.30;160885.20;1736615;82;21443;-82
2021/06/09 02:13:36;;;;;;;4.00;3.20;;;;;;;36.86;45.21;160897.28;1758162;81;21151;-82
2021/06/09 02:16:08;;;;;;;3.77;2.75;;;;;;;36.79;45.29;160878.52;1771280;81;21198;-83
2021/06/09 02:18:41;;;;;;;3.67;3.20;;;;;;;36.75;45.30;160869.16;1773112;81;21190;-82
2021/06/09 02:21:13;;;;;;;3.72;3.25;;;;;;;36.77;45.22;160873.16;1773151;81;21321;-83
2021/06/09 02:23:46;;;;;;;3.17;2.85;;;;;;;36.81;45.14;160883.89;1773339;81;21210;-83
2021/06/09 02:26:19;;;;;;;4.05;2.83;;;;;;;36.81;45.05;160885.20;1773173;81;21410;-82
2021/06/09 02:28:51;;;;;;;4.37;3.20;;;;;;;36.78;45.07;160877.20;1773225;81;21717;-82
2021/06/09 02:31:23;;;;;;;5.97;2.62;;;;;;;36.79;44.99;160878.52;1773180;81;21143;-81
2021/06/09 02:33:56;;;;;;;3.83;3.33;;;;;;;36.84;44.87;160891.92;1778052;80;21184;-83
2021/06/09 02:36:29;;;;;;;5.70;3.00;;;;;;;36.85;44.77;160894.61;1778769;80;21736;-82
2021/06/09 02:39:01;;;;;;;4.08;3.08;;;;;;;36.80;44.81;160882.56;1775074;80;21293;-83
2021/06/09 02:41:34;;;;;;;3.62;2.83;;;;;;;36.77;44.82;160873.16;1738206;81;21365;-81
2021/06/09 02:44:07;;;;;;;6.00;3.27;;;;;;;36.75;44.81;160867.84;1772896;81;21317;-83
2021/06/09 02:46:49;;;;;;;3.35;3.05;;;;;;;36.72;44.87;160859.80;1773319;79;21708;-82
2021/06/09 02:49:25;;;;;;;3.35;3.00;;;;;;;36.77;44.76;160874.52;1773439;81;21198;-82
2021/06/09 02:52:20;;;;;;;3.47;3.12;;;;;;;36.64;44.94;160839.72;1773290;81;21167;-82
2021/06/09 02:55:18;;;;;;;4.50;2.90;;;;;;;36.51;45.14;160804.91;1748639;80;21341;-81
2021/06/09 02:58:09;;;;;;;4.10;2.80;;;;;;;36.49;45.19;160798.23;1738976;81;21191;-82
2021/06/09 03:01:10;;;;;;;3.77;3.02;;;;;;;36.48;45.26;160795.56;1772408;81;21336;-83
2021/06/09 03:03:56;;;;;;;3.67;2.90;;;;;;;36.54;45.20;160811.59;1752761;80;21332;-82
2021/06/09 03:06:32;;;;;;;3.22;2.90;;;;;;;36.61;45.05;160831.67;1773202;81;21297;-82
2021/06/09 03:09:36;;;;;;;3.75;3.00;;;;;;;36.64;45.02;160839.72;1773183;81;21290;-82
2021/06/09 03:12:29;;;;;;;3.35;2.98;;;;;;;36.60;45.09;160827.67;1772685;81;21207;-83
2021/06/09 03:15:14;;;;;;;3.35;3.05;;;;;;;36.50;45.25;160802.23;1773178;81;21674;-82
2021/06/09 03:17:56;;;;;;;3.05;2.85;;;;;;;36.41;45.48;160778.09;1773195;81;21416;-82
2021/06/09 03:20:43;;;;;;;3.30;2.85;;;;;;;36.43;45.47;160782.09;1721767;81;21230;-82
2021/06/09 03:23:45;;;;;;;4.08;3.00;;;;;;;36.34;45.63;160758.03;1752245;81;21332;-81
2021/06/09 03:26:57;;;;;;;6.20;4.08;;;;;;;36.36;45.62;160764.69;1772783;80;21801;-81
2021/06/09 03:29:50;;;;;;;4.87;2.80;;;;;;;36.38;45.67;160768.75;1742597;81;21206;-81
2021/06/09 03:32:40;;;;;;;3.40;3.10;;;;;;;36.68;45.16;160850.44;1765426;81;21337;-83
2021/06/09 03:35:22;;;;;;;3.58;2.95;;;;;;;36.67;45.14;160846.39;1772463;81;21863;-82
2021/06/09 03:37:55;;;;;;;2.83;2.58;;;;;;;36.66;45.21;160843.72;1772838;81;21282;-83
2021/06/09 03:40:30;;;;;;;4.00;3.25;;;;;;;36.46;45.46;160791.50;1773024;81;21301;-83
2021/06/09 03:43:09;;;;;;;3.75;3.25;;;;;;;36.69;45.15;160851.75;1744069;81;21840;-82
2021/06/09 03:45:50;;;;;;;3.42;3.12;;;;;;;36.54;45.34;160811.59;1732565;81;21202;-80
2021/06/09 03:48:24;;;;;;;3.10;2.75;;;;;;;36.52;45.48;160806.23;1752881;81;21709;-81
2021/06/09 03:50:59;;;;;;;3.40;3.10;;;;;;;36.50;45.52;160802.23;1773012;81;21234;-81
2021/06/09 03:53:31;;;;;;;4.17;3.20;;;;;;;36.76;45.08;160871.84;1761955;81;21246;-82
2021/06/09 03:56:05;;;;;;;4.03;3.40;;;;;;;36.79;45.03;160879.87;1762880;81;21843;-82
2021/06/09 03:58:37;;;;;;;4.97;3.30;;;;;;;36.79;45.03;160879.87;1773142;81;21340;-83
2021/06/09 04:01:10;;;;;;;3.90;3.15;;;;;;;36.58;45.40;160823.62;1773207;81;21293;-81
2021/06/09 04:03:42;;;;;;;4.30;3.10;;;;;;;36.85;45.00;160895.92;1772211;81;21242;-82
2021/06/09 04:06:19;;;;;;;3.40;3.10;;;;;;;36.79;45.10;160879.87;1779473;79;21542;-83
2021/06/09 04:08:52;;;;;;;4.65;3.22;;;;;;;36.82;45.11;160887.88;1776907;80;21202;-83
2021/06/09 04:11:25;;;;;;;3.90;3.15;;;;;;;36.96;44.91;160924.11;1760883;80;21700;-83
2021/06/09 04:13:58;;;;;;;6.03;3.50;;;;;;;36.95;44.98;160921.42;1762135;80;21187;-86
2021/06/09 04:16:32;;;;;;;3.50;3.20;;;;;;;37.04;44.84;160948.19;1763314;80;21268;-85
2021/06/09 04:19:07;;;;;;;3.67;2.92;;;;;;;37.00;45.04;160934.78;1760643;80;21248;-82
2021/06/09 04:21:39;;;;;;;3.55;3.22;;;;;;;36.92;45.17;160913.37;1762334;80;21736;-81
2021/06/09 04:24:12;;;;;;;3.83;3.02;;;;;;;36.94;45.21;160918.75;1767314;80;21831;-82
2021/06/09 04:26:44;;;;;;;5.20;3.40;;;;;;;36.91;45.27;160912.06;1761479;79;21225;-81
2021/06/09 04:29:17;;;;;;;3.75;3.40;;;;;;;36.94;45.18;160918.75;1776490;80;21840;-81
2021/06/09 04:31:50;;;;;;;4.95;3.52;;;;;;;36.69;45.63;160851.75;1785600;80;21198;-82
2021/06/09 04:34:22;;;;;;;5.10;3.22;;;;;;;36.66;45.83;160843.72;1778367;80;21824;-81
2021/06/09 04:36:54;;;;;;;3.50;3.20;;;;;;;36.64;46.01;160838.34;1787084;80;21210;-81
2021/06/09 04:39:27;;;;;;;5.40;3.67;;;;;;;36.75;46.05;160869.16;1786903;80;21352;-82
2021/06/09 04:41:59;;;;;;;4.72;3.50;;;;;;;36.87;45.86;160899.92;1758188;80;21206;-82
2021/06/09 04:44:33;;;;;;;7.15;3.15;;;;;;;36.90;45.91;160909.39;1779844;80;21332;-81
2021/06/09 04:47:05;;;;;;;5.05;3.60;;;;;;;36.60;46.55;160829.00;1786501;79;21198;-81
2021/06/09 04:49:44;;;;;;;3.60;3.30;;;;;;;36.71;46.50;160858.44;1786922;80;21312;-81
2021/06/09 04:52:16;;;;;;;8.68;3.67;;;;;;;36.62;46.81;160833.03;1787063;80;21704;-81
2021/06/09 04:54:49;;;;;;;4.03;3.62;;;;;;;36.62;46.99;160834.34;1786758;80;21321;-80
2021/06/09 04:57:21;;;;;;;4.60;3.40;;;;;;;36.63;47.29;160837.03;1786787;80;21289;-81
2021/06/09 04:59:53;;;;;;;4.35;3.67;;;;;;;36.70;47.39;160855.75;1768331;80;21859;-82
2021/06/09 05:02:25;;;;;;;3.85;3.45;;;;;;;36.73;47.36;160862.48;1786839;80;21332;-82
2021/06/09 05:04:59;;;;;;;4.53;3.70;;;;;;;36.73;47.38;160862.48;1785163;80;21309;-82
2021/06/09 05:07:31;;;;;;;3.50;3.20;;;;;;;36.75;47.33;160869.16;1771710;80;21214;-81
2021/06/09 05:10:04;;;;;;;3.92;3.20;;;;;;;36.70;47.46;160855.75;1786960;80;21348;-83
2021/06/09 05:12:43;;;;;;;5.05;3.47;;;;;;;36.71;47.35;160858.44;1763490;80;21397;-81
2021/06/09 05:15:16;;;;;;;4.00;3.33;;;;;;;36.69;47.35;160853.08;1785925;80;21325;-82
2021/06/09 05:17:49;;;;;;;4.22;3.75;;;;;;;36.72;47.32;160861.12;1785935;80;21343;-82
2021/06/09 05:20:26;;;;;;;3.77;3.20;;;;;;;36.72;47.43;160861.12;1787163;80;21878;-82
2021/06/09 05:23:17;;;;;;;4.60;3.25;;;;;;;36.70;47.36;160854.44;1786941;80;21312;-81
2021/06/09 05:25:52;;;;;;;3.55;3.25;;;;;;;36.71;47.36;160857.13;1787356;80;21416;-81
2021/06/09 05:28:27;;;;;;;5.15;3.60;;;;;;;36.81;47.09;160885.20;1787127;80;21357;-81
2021/06/09 05:31:00;;;;;;;5.17;3.37;;;;;;;36.78;47.13;160875.84;1786378;80;21583;-81
2021/06/09 05:33:33;;;;;;;5.17;3.60;;;;;;;36.77;47.15;160874.52;1787023;80;21280;-81
2021/06/09 05:36:06;;;;;;;4.25;3.67;;;;;;;36.82;47.18;160887.88;1749743;82;21308;-81
2021/06/09 05:38:39;;;;;;;4.12;3.50;;;;;;;36.84;47.52;160893.25;1749880;82;21233;-81
2021/06/09 05:41:11;;;;;;;5.12;3.83;;;;;;;36.83;47.64;160890.56;1730034;83;21203;-82
2021/06/09 05:43:43;;;;;;;5.00;4.03;;;;;;;36.87;47.88;160901.28;1733486;82;21361;-81
2021/06/09 05:46:16;;;;;;;8.13;3.72;;;;;;;36.90;48.16;160909.39;1739126;82;21954;-81
2021/06/09 05:48:48;;;;;;;4.95;3.22;;;;;;;36.92;48.10;160914.75;1708561;82;21323;-82
2021/06/09 05:51:22;;;;;;;4.53;3.40;;;;;;;37.00;47.99;160936.16;1731781;82;21183;-84
2021/06/09 05:53:55;;;;;;;5.87;3.52;;;;;;;37.18;47.79;160984.33;1729097;83;21389;-82
2021/06/09 05:56:29;;;;;;;3.75;3.10;;;;;;;37.07;47.85;160956.25;1749213;82;21348;-83
2021/06/09 05:59:01;;;;;;;3.77;3.42;;;;;;;37.09;47.90;160960.23;1731342;83;21210;-82
2021/06/09 06:01:34;;;;;;;3.83;3.42;;;;;;;37.17;47.73;160983.00;1703727;83;21172;-82
2021/06/09 06:04:07;;;;;;;4.00;3.10;;;;;;;37.25;47.57;161003.09;1704876;83;21252;-82
2021/06/09 06:06:40;;;;;;;3.42;3.10;;;;;;;37.34;47.29;161027.19;1703724;83;21273;-83
2021/06/09 06:09:12;;;;;;;4.35;3.00;;;;;;;37.31;47.36;161020.52;1715345;82;21418;-81
2021/06/09 06:11:45;;;;;;;4.37;3.22;;;;;;;37.32;47.38;161023.19;1714650;83;21871;-82
2021/06/09 06:14:17;;;;;;;3.40;3.00;;;;;;;37.40;47.37;161044.66;1714638;83;21367;-82
2021/06/09 06:16:55;;;;;;;3.80;3.22;;;;;;;37.46;47.44;161059.38;1720383;83;21158;-80
2021/06/09 06:19:39;;;;;;;5.67;3.02;;;;;;;37.51;47.29;161074.11;1716932;83;21315;-81
2021/06/09 06:22:11;;;;;;;3.35;3.05;;;;;;;37.53;47.29;161078.11;1700086;83;21344;-83
2021/06/09 06:24:46;;;;;;;4.92;2.75;;;;;;;37.58;47.28;161091.53;1734177;83;21233;-81
2021/06/09 06:27:19;;;;;;;4.10;3.27;;;;;;;37.59;47.42;161094.20;1738893;82;21254;-82
2021/06/09 06:29:52;;;;;;;3.80;3.17;;;;;;;37.64;47.43;161108.94;1739004;82;21832;-83
2021/06/09 06:32:24;;;;;;;3.20;2.85;;;;;;;37.68;47.44;161119.63;1739100;82;21702;-82
2021/06/09 06:34:56;;;;;;;5.67;2.72;;;;;;;37.79;47.34;161147.81;1739021;82;21816;-82
2021/06/09 06:37:29;;;;;;;4.22;2.87;;;;;;;37.79;47.38;161149.12;1714648;83;21815;-83
2021/06/09 06:40:01;;;;;;;4.17;2.92;;;;;;;37.82;47.42;161155.88;1714716;83;21209;-82
2021/06/09 06:42:34;;;;;;;4.87;3.12;;;;;;;37.86;47.36;161167.92;1714752;83;21328;-82
2021/06/09 06:45:08;;;;;;;3.85;3.15;;;;;;;37.91;47.36;161179.97;1714649;83;21331;-82
2021/06/09 06:47:40;;;;;;;5.85;3.30;;;;;;;37.96;47.38;161193.39;1714879;83;21217;-83
2021/06/09 06:50:14;;;;;;;5.87;3.12;;;;;;;37.93;47.57;161185.34;1714818;83;21427;-82
2021/06/09 06:52:47;;;;;;;4.33;2.58;;;;;;;37.82;47.85;161155.88;1714664;83;21323;-83
2021/06/09 06:55:21;;;;;;;6.78;2.90;;;;;;;37.90;47.88;161177.28;1714922;83;21189;-83
2021/06/09 06:57:54;;;;;;;4.97;3.00;;;;;;;38.01;47.69;161209.44;1714641;83;21217;-82
2021/06/09 07:00:26;;;;;;;11.93;4.20;;;;;;;38.13;47.50;161241.59;1687262;83;21185;-82
2021/06/09 07:03:02;;;;;;;3.83;2.70;;;;;;;38.07;47.66;161225.53;1714896;83;21851;-82
2021/06/09 07:05:34;;;;;;;4.87;2.37;;;;;;;38.13;47.59;161241.59;1687729;83;21320;-82
2021/06/09 07:08:06;;;;;;;3.05;2.20;;;;;;;38.25;47.38;161273.81;1714523;83;21367;-82
2021/06/09 07:10:40;;;;;;;3.10;2.47;;;;;;;38.33;47.25;161295.22;1714578;83;21248;-82
2021/06/09 07:13:14;;;;;;;3.50;2.50;;;;;;;38.45;47.03;161326.06;1714691;83;21419;-82
2021/06/09 07:15:47;;;;;;;2.60;2.05;;;;;;;38.53;46.80;161347.48;1714595;83;21209;-83
2021/06/09 07:18:21;;;;;;;2.35;2.15;;;;;;;38.52;46.72;161346.17;1714595;83;21359;-82
2021/06/09 07:20:54;;;;;;;2.17;1.98;;;;;;;38.60;46.56;161366.28;1714902;83;21347;-82
2021/06/09 07:23:26;;;;;;;2.98;1.90;;;;;;;38.69;46.45;161390.45;1714576;83;21426;-82
2021/06/09 07:25:58;;;;;;;2.55;2.00;;;;;;;38.74;46.35;161403.81;1714657;83;21313;-83
2021/06/09 07:28:30;;;;;;;3.92;2.00;;;;;;;38.77;46.31;161413.25;1714906;83;21372;-81
2021/06/09 07:31:03;;;;;;;2.50;2.30;;;;;;;38.81;46.23;161422.61;1714555;83;21166;-82
2021/06/09 07:33:36;;;;;;;2.85;2.33;;;;;;;38.91;46.10;161450.73;1714800;83;21803;-82
2021/06/09 07:36:08;;;;;;;2.12;1.98;;;;;;;39.00;45.94;161474.91;1714931;83;21716;-83
2021/06/09 07:38:46;;;;;;;2.47;2.20;;;;;;;39.05;46.02;161489.64;1714919;83;21189;-82
2021/06/09 07:41:19;;;;;;;3.15;2.10;;;;;;;39.04;46.01;161486.97;1714896;83;21657;-82
2021/06/09 07:43:51;;;;;;;2.83;2.15;;;;;;;39.13;46.02;161511.13;1714812;83;21237;-83
2021/06/09 07:46:28;;;;;;;2.35;2.15;;;;;;;39.16;46.08;161519.19;1714700;83;21822;-83
2021/06/09 07:49:06;;;;;;;3.60;2.00;;;;;;;39.22;46.06;161533.94;1714861;83;21348;-83
2021/06/09 07:51:38;;;;;;;2.25;2.05;;;;;;;39.26;46.06;161546.00;1714680;83;21340;-83
2021/06/09 07:54:11;;;;;;;3.33;2.15;;;;;;;39.25;46.15;161543.31;1714890;83;22267;-82
2021/06/09 07:56:44;;;;;;;2.30;1.87;;;;;;;39.35;46.13;161568.80;1687309;83;21279;-82
2021/06/09 07:59:19;;;;;;;2.33;2.05;;;;;;;39.47;45.99;161600.98;1714877;83;21673;-82
2021/06/09 08:01:51;;;;;;;2.33;1.98;;;;;;;39.65;45.67;161649.28;1687630;83;21221;-84
2021/06/09 08:04:23;;;;;;;3.20;2.12;;;;;;;39.69;45.68;161661.34;1714735;83;21185;-82
2021/06/09 08:06:56;;;;;;;3.17;2.05;;;;;;;39.76;45.61;161678.78;1714842;83;21324;-83
2021/06/09 08:09:30;;;;;;;4.42;2.45;;;;;;;39.84;45.60;161700.22;1687036;83;21339;-84
2021/06/09 08:12:05;;;;;;;2.40;2.20;;;;;;;39.93;45.49;161725.78;1689741;83;21383;-82
2021/06/09 08:14:38;;;;;;;2.20;2.00;;;;;;;40.01;45.32;161748.59;1783702;80;21217;-83
2021/06/09 08:17:10;;;;;;;3.83;2.50;;;;;;;40.06;45.40;161760.66;1783946;80;21851;-83
2021/06/09 08:19:43;;;;;;;2.83;2.55;;;;;;;40.14;45.34;161783.47;1783830;80;21170;-83
2021/06/09 08:22:15;;;;;;;3.05;2.27;;;;;;;40.19;45.29;161796.86;1783869;80;21225;-84
2021/06/09 08:24:48;;;;;;;2.95;2.42;;;;;;;40.21;45.30;161802.23;1783782;80;21294;-83
2021/06/09 08:27:20;;;;;;;3.05;2.52;;;;;;;40.25;45.30;161811.63;1783760;80;21178;-84
2021/06/09 08:29:53;;;;;;;3.77;2.40;;;;;;;40.35;45.13;161839.86;1783634;80;21198;-83
2021/06/09 08:32:25;;;;;;;3.83;2.40;;;;;;;40.40;45.06;161853.25;1784083;80;21328;-84
2021/06/09 08:34:59;;;;;;;3.37;2.58;;;;;;;40.47;44.90;161872.06;1783700;80;21222;-83
2021/06/09 08:37:31;;;;;;;3.87;2.92;;;;;;;40.51;44.88;161881.44;1783711;80;21186;-83
2021/06/09 08:40:08;;;;;;;2.85;2.25;;;;;;;40.54;44.74;161890.83;1783735;80;21257;-83
2021/06/09 08:42:41;;;;;;;2.85;2.58;;;;;;;40.70;44.65;161932.41;1783761;80;21230;-83
2021/06/09 08:45:15;;;;;;;2.95;2.50;;;;;;;40.61;44.67;161908.28;1765170;80;21331;-83
2021/06/09 08:47:47;;;;;;;3.33;2.62;;;;;;;40.65;44.54;161919.03;1783728;80;21650;-84
2021/06/09 08:50:20;;;;;;;2.62;2.42;;;;;;;40.77;44.36;161952.61;1783701;80;21237;-83
2021/06/09 08:52:53;;;;;;;2.77;2.40;;;;;;;40.70;44.39;161933.78;1783721;80;21360;-82
2021/06/09 08:55:25;;;;;;;3.12;2.62;;;;;;;40.64;44.53;161917.66;1784010;80;21330;-84
2021/06/09 08:57:57;;;;;;;3.52;2.47;;;;;;;40.74;44.39;161944.59;1783793;80;21174;-83
2021/06/09 09:00:32;;;;;;;4.42;2.60;;;;;;;40.79;44.34;161956.67;1783908;80;21348;-84
2021/06/09 09:03:04;;;;;;;2.50;2.30;;;;;;;40.84;44.25;161971.42;1783899;80;21836;-84
2021/06/09 09:05:37;;;;;;;4.33;2.80;;;;;;;40.87;44.21;161978.13;1783706;80;21225;-84
2021/06/09 09:08:10;;;;;;;4.17;2.42;;;;;;;40.99;44.14;162013.03;1783929;80;21183;-83
2021/06/09 09:10:43;;;;;;;4.28;2.75;;;;;;;41.17;43.87;162060.06;1783630;80;21217;-84
2021/06/09 09:13:16;;;;;;;2.65;2.45;;;;;;;41.10;44.02;162042.55;1773428;80;21408;-83
2021/06/09 09:15:50;;;;;;;3.83;2.40;;;;;;;41.16;44.12;162057.38;1773215;81;21218;-84
2021/06/09 09:18:38;;;;;;;2.50;2.12;;;;;;;41.17;44.08;162061.38;1773506;81;21250;-82
2021/06/09 09:21:13;;;;;;;2.83;2.35;;;;;;;41.24;44.16;162080.20;1740812;80;21360;-83
2021/06/09 09:23:50;;;;;;;2.67;2.47;;;;;;;41.22;44.19;162073.45;1772035;80;21338;-82
2021/06/09 09:26:30;;;;;;;2.60;2.40;;;;;;;41.20;44.25;162069.44;1773297;81;21187;-83
2021/06/09 09:29:17;;;;;;;3.90;2.60;;;;;;;41.41;43.87;162124.50;1773650;81;21175;-84
2021/06/09 09:31:58;;;;;;;2.70;2.50;;;;;;;41.40;43.99;162123.12;1773555;81;21198;-83
2021/06/09 09:34:51;;;;;;;2.98;2.40;;;;;;;41.42;43.99;162127.19;1773258;81;21377;-84
2021/06/09 09:37:24;;;;;;;3.72;2.15;;;;;;;41.53;43.78;162158.03;1773374;80;21907;-84
2021/06/09 09:40:18;;;;;;;2.80;2.37;;;;;;;41.66;43.69;162191.69;1773307;81;21309;-84
2021/06/09 09:42:50;;;;;;;5.97;2.80;;;;;;;41.83;43.41;162238.69;1773279;81;21312;-79
2021/06/09 09:45:29;;;;;;;3.92;2.10;;;;;;;41.86;43.22;162246.70;1773324;81;21685;-82
2021/06/09 09:48:18;;;;;;;3.45;2.27;;;;;;;41.88;43.11;162250.77;1773440;81;21365;-83
2021/06/09 09:50:52;;;;;;;2.65;2.45;;;;;;;41.91;43.00;162261.47;1773530;81;21768;-82
2021/06/09 09:53:31;;;;;;;2.90;2.47;;;;;;;42.01;42.74;162288.44;1773475;81;21848;-81
2021/06/09 09:56:16;;;;;;;2.92;2.30;;;;;;;42.11;42.55;162315.28;1773225;81;21316;-83
2021/06/09 09:58:58;;;;;;;4.42;2.90;;;;;;;42.15;42.44;162324.67;1773251;81;21344;-83
2021/06/09 10:01:31;;;;;;;3.27;2.50;;;;;;;42.20;42.26;162339.44;1773226;81;21352;-83
2021/06/09 10:04:05;;;;;;;2.67;2.40;;;;;;;42.32;42.28;162370.31;1773323;81;21151;-84
2021/06/09 10:06:43;;;;;;;5.37;2.30;;;;;;;42.33;42.34;162374.37;1773289;81;21313;-84
2021/06/09 10:09:39;;;;;;;2.67;2.47;;;;;;;42.33;42.34;162374.37;1773231;81;21361;-83
2021/06/09 10:12:13;;;;;;;2.62;2.33;;;;;;;42.35;42.26;162378.44;1773301;80;21179;-83
2021/06/09 10:14:49;;;;;;;4.28;2.30;;;;;;;42.62;41.78;162451.00;1773354;81;21265;-83
2021/06/09 10:17:29;;;;;;;4.35;2.30;;;;;;;42.43;42.04;162399.92;1773517;81;21179;-83
2021/06/09 10:20:03;;;;;;;2.35;2.15;;;;;;;42.71;41.56;162476.50;1773526;81;21709;-84
2021/06/09 10:22:39;;;;;;;3.42;2.55;;;;;;;42.83;41.28;162508.80;1773392;81;21211;-84
2021/06/09 10:25:13;;;;;;;2.45;2.25;;;;;;;42.97;41.00;162546.42;1773279;81;21341;-83
2021/06/09 10:27:49;;;;;;;2.42;2.22;;;;;;;42.87;41.04;162519.56;1773250;81;21183;-84
2021/06/09 10:30:27;;;;;;;2.35;2.15;;;;;;;42.82;41.14;162504.78;1773494;81;21211;-84
2021/06/09 10:33:02;;;;;;;2.42;2.20;;;;;;;42.83;41.01;162508.80;1773167;81;21296;-85
2021/06/09 10:35:43;;;;;;;3.10;2.17;;;;;;;42.93;40.84;162535.72;1773490;81;21693;-84
2021/06/09 10:38:11;;;;;;;3.10;2.25;;;;;;;42.93;40.69;162535.72;1773439;80;21292;-85
2021/06/09 10:40:43;;;;;;;2.27;2.12;;;;;;;42.99;40.38;162551.81;1773292;81;21397;-83
2021/06/09 10:43:16;;;;;;;4.58;2.12;;;;;;;43.02;40.07;162559.89;1738045;81;21159;-84
2021/06/09 10:45:49;;;;;;;3.05;2.30;;;;;;;43.15;39.86;162594.89;1773229;81;21265;-83
2021/06/09 10:48:22;;;;;;;2.30;1.95;;;;;;;43.34;39.50;162645.94;1773293;81;21219;-83
2021/06/09 10:50:55;;;;;;;2.62;2.20;;;;;;;43.52;39.15;162694.41;1762528;81;21195;-85
2021/06/09 10:53:27;;;;;;;2.12;1.92;;;;;;;43.52;39.15;162694.41;1773390;81;21237;-84
2021/06/09 10:56:00;;;;;;;2.85;1.72;;;;;;;43.59;38.96;162713.22;1773267;81;21182;-83
2021/06/09 10:58:32;;;;;;;6.05;2.47;;;;;;;43.64;38.87;162726.63;1762807;81;21345;-84
2021/06/09 11:01:07;;;;;;;2.52;2.30;;;;;;;43.64;38.84;162726.63;1773524;81;21175;-84
2021/06/09 11:03:43;;;;;;;2.52;1.98;;;;;;;43.49;38.96;162686.28;1773449;81;21199;-84
2021/06/09 11:06:13;;;;;;;2.67;1.85;;;;;;;43.47;38.92;162680.89;1773418;81;21772;-84
2021/06/09 11:08:46;;;;;;;1.70;1.60;;;;;;;43.53;38.80;162698.42;1773416;81;21217;-84
2021/06/09 11:11:21;;;;;;;2.90;2.20;;;;;;;43.60;38.50;162715.91;1773411;81;21182;-85
2021/06/09 11:13:53;;;;;;;4.15;1.90;;;;;;;43.67;38.29;162734.70;1773194;79;21230;-83
2021/06/09 11:16:27;;;;;;;2.42;2.17;;;;;;;43.72;38.20;162749.48;1773293;81;21218;-83
2021/06/09 11:19:00;;;;;;;3.80;2.08;;;;;;;43.83;37.94;162780.44;1773535;81;21674;-84
2021/06/09 11:21:37;;;;;;;3.40;2.05;;;;;;;43.90;37.69;162799.28;1772862;80;21729;-84
2021/06/09 11:24:11;;;;;;;2.25;2.02;;;;;;;43.93;37.54;162806.00;1773354;81;21167;-84
2021/06/09 11:26:44;;;;;;;2.17;1.98;;;;;;;43.97;37.37;162818.14;1773337;81;21214;-83
2021/06/09 11:29:30;;;;;;;4.10;1.95;;;;;;;43.99;37.06;162823.48;1773274;81;21348;-84
2021/06/09 11:32:25;;;;;;;2.35;1.80;;;;;;;43.88;37.14;162793.91;1773070;80;21175;-85
2021/06/09 11:34:59;;;;;;;2.15;1.70;;;;;;;43.97;36.96;162816.78;1773290;81;21227;-83
2021/06/09 11:37:31;;;;;;;2.92;2.02;;;;;;;43.99;36.92;162822.16;1773310;81;21372;-83
2021/06/09 11:40:06;;;;;;;2.40;2.20;;;;;;;44.12;36.67;162857.12;1773340;81;21693;-82
2021/06/09 11:42:39;;;;;;;1.92;1.80;;;;;;;44.07;36.34;162845.03;1773350;81;21721;-82
2021/06/09 11:45:24;;;;;;;2.08;1.98;;;;;;;44.02;36.34;162830.25;1773246;81;21809;-83
2021/06/09 11:48:20;;;;;;;2.42;1.80;;;;;;;43.95;36.28;162812.75;1773379;81;21175;-83
2021/06/09 11:51:03;;;;;;;2.17;2.00;;;;;;;44.29;35.72;162904.25;1773253;81;21219;-82
2021/06/09 11:53:39;;;;;;;2.45;1.87;;;;;;;44.06;35.73;162842.33;1725790;81;21198;-84
2021/06/09 11:56:27;;;;;;;2.27;2.00;;;;;;;43.85;35.99;162785.81;1773339;81;21284;-82
2021/06/09 11:59:08;;;;;;;2.02;1.90;;;;;;;43.81;36.00;162773.67;1773287;81;21210;-82
2021/06/09 12:01:43;;;;;;;2.27;2.08;;;;;;;43.68;36.14;162737.39;1773247;81;21178;-82
2021/06/09 12:04:26;;;;;;;2.47;2.27;;;;;;;43.55;36.30;162702.44;1773514;81;21844;-82